Time;durP1;ratioP1;P1;durP2;ratioP2;P2;SDS_P1;SDS_P2;PMS_P1;PMS_P2;Temp;Humidity;BMP_temperature;BMP_pressure;BME280_temperature;BME280_humidity;BME280_pressure;Samples;Min_cycle;Max_cycle;Signal;HPM_P1;HPM_P2
2022/04/23 00:01:28;;;;;;;28.20;21.05;;;8.90;99.90;;;;;;4904936;29;20540;-82
2022/04/23 00:03:54;;;;;;;24.65;20.55;;;9.00;99.90;;;;;;4891491;28;20052;-82
2022/04/23 00:06:19;;;;;;;22.20;19.33;;;8.90;99.90;;;;;;4891047;29;20127;-82
2022/04/23 00:08:45;;;;;;;25.45;20.80;;;9.00;99.90;;;;;;4877721;28;20035;-83
2022/04/23 00:11:10;;;;;;;23.25;19.60;;;8.90;99.90;;;;;;4923876;28;20051;-82
2022/04/23 00:13:38;;;;;;;25.42;20.88;;;8.90;99.90;;;;;;4875528;29;20035;-82
2022/04/23 00:16:05;;;;;;;27.83;22.13;;;8.80;99.90;;;;;;4909467;29;20039;-83
2022/04/23 00:18:30;;;;;;;25.08;19.92;;;8.80;99.90;;;;;;4906912;29;20037;-82
2022/04/23 00:20:56;;;;;;;25.42;20.25;;;8.70;99.90;;;;;;4893019;28;20408;-83
2022/04/23 00:23:21;;;;;;;25.60;20.27;;;8.70;99.90;;;;;;4892653;29;21402;-83
2022/04/23 00:25:50;;;;;;;22.70;19.63;;;8.80;99.90;;;;;;4876428;28;20444;-83
2022/04/23 00:28:17;;;;;;;23.33;20.63;;;8.80;99.90;;;;;;4907171;29;20036;-82
2022/04/23 00:30:44;;;;;;;27.48;21.15;;;8.70;99.90;;;;;;4907719;28;20437;-82
2022/04/23 00:33:10;;;;;;;27.60;22.05;;;8.60;99.90;;;;;;4907648;29;20116;-83
2022/04/23 00:35:36;;;;;;;28.42;21.75;;;8.50;99.90;;;;;;4907898;28;20107;-80
2022/04/23 00:38:02;;;;;;;25.15;21.38;;;8.60;99.90;;;;;;4908671;29;20459;-80
2022/04/23 00:40:28;;;;;;;33.80;22.42;;;8.60;99.90;;;;;;4892769;29;20303;-81
2022/04/23 00:42:55;;;;;;;25.80;20.48;;;8.60;99.90;;;;;;4892438;28;20460;-80
2022/04/23 00:45:27;;;;;;;27.25;21.38;;;8.60;99.90;;;;;;4889202;29;20076;-80
2022/04/23 00:47:53;;;;;;;24.65;20.45;;;8.50;99.90;;;;;;4876484;29;20417;-80
2022/04/23 00:50:21;;;;;;;24.40;19.95;;;8.60;99.90;;;;;;4907630;29;20661;-81
2022/04/23 00:52:50;;;;;;;25.20;19.45;;;8.50;99.90;;;;;;4889647;28;20429;-83
2022/04/23 00:55:16;;;;;;;23.90;19.73;;;8.50;99.90;;;;;;4892284;29;20116;-82
2022/04/23 00:57:42;;;;;;;24.90;21.08;;;8.60;99.90;;;;;;4907386;28;20460;-82
2022/04/23 01:00:09;;;;;;;23.70;20.20;;;8.50;99.90;;;;;;4906792;28;20069;-81
2022/04/23 01:02:35;;;;;;;24.38;19.55;;;8.50;99.90;;;;;;4901239;29;20466;-81
2022/04/23 01:05:01;;;;;;;25.60;19.85;;;8.60;99.90;;;;;;4877321;29;20452;-81
2022/04/23 01:07:27;;;;;;;25.67;21.15;;;8.50;99.90;;;;;;4906911;28;20103;-82
2022/04/23 01:09:53;;;;;;;22.50;19.25;;;8.40;99.90;;;;;;4889652;28;20028;-81
2022/04/23 01:12:19;;;;;;;22.65;19.10;;;8.50;99.90;;;;;;4906677;29;20032;-81
2022/04/23 01:14:58;;;;;;;29.90;19.80;;;8.60;99.90;;;;;;4874402;29;20425;-82
2022/04/23 01:17:23;;;;;;;24.85;19.60;;;8.50;99.90;;;;;;4875118;29;20109;-82
2022/04/23 01:19:49;;;;;;;24.48;20.08;;;8.60;99.90;;;;;;4887830;28;20212;-82
2022/04/23 01:22:15;;;;;;;26.30;20.70;;;8.50;99.90;;;;;;4908072;28;20496;-81
2022/04/23 01:24:41;;;;;;;26.27;20.52;;;8.50;99.90;;;;;;4871265;28;20127;-81
2022/04/23 01:27:07;;;;;;;25.60;20.50;;;8.50;99.90;;;;;;4891028;28;20044;-84
2022/04/23 01:29:34;;;;;;;27.00;21.02;;;8.50;99.90;;;;;;4891818;29;20047;-81
2022/04/23 01:32:02;;;;;;;27.92;21.95;;;8.50;99.90;;;;;;4873982;29;20362;-82
2022/04/23 01:34:28;;;;;;;30.50;22.67;;;8.50;99.90;;;;;;4902555;29;20674;-81
2022/04/23 01:36:53;;;;;;;29.40;21.90;;;8.20;99.90;;;;;;4905044;29;20080;-82
2022/04/23 01:39:19;;;;;;;30.00;23.00;;;8.30;99.90;;;;;;4891251;28;20079;-82
2022/04/23 01:41:47;;;;;;;32.63;24.40;;;8.30;99.90;;;;;;4906587;28;20060;-81
2022/04/23 01:44:12;;;;;;;36.38;26.30;;;8.30;99.90;;;;;;4876352;28;20055;-81
2022/04/23 01:46:38;;;;;;;35.38;26.23;;;8.20;99.90;;;;;;4891773;29;20036;-81
2022/04/23 01:49:03;;;;;;;36.20;27.20;;;8.30;99.90;;;;;;4888326;29;20481;-80
2022/04/23 01:51:29;;;;;;;32.33;24.27;;;8.20;99.90;;;;;;4904112;28;20033;-81
2022/04/23 01:53:54;;;;;;;38.22;29.85;;;8.30;99.90;;;;;;4872588;28;20036;-81
2022/04/23 01:56:20;;;;;;;43.45;30.70;;;8.20;99.90;;;;;;4906756;28;20040;-82
2022/04/23 01:58:46;;;;;;;37.72;29.05;;;8.30;99.90;;;;;;4891798;29;20032;-82
2022/04/23 02:01:11;;;;;;;42.65;31.27;;;8.40;99.90;;;;;;4875713;29;20036;-82
2022/04/23 02:03:37;;;;;;;44.40;31.60;;;8.30;99.90;;;;;;4891478;28;20029;-82
2022/04/23 02:06:02;;;;;;;43.05;31.38;;;8.30;99.90;;;;;;4906951;29;20576;-81
2022/04/23 02:08:28;;;;;;;45.47;33.28;;;8.30;99.90;;;;;;4887982;29;20513;-81
2022/04/23 02:10:54;;;;;;;45.70;33.58;;;8.40;99.90;;;;;;4902693;28;20484;-81
2022/04/23 02:13:20;;;;;;;46.95;36.78;;;8.40;99.90;;;;;;4887766;29;20485;-81
2022/04/23 02:15:45;;;;;;;43.08;31.90;;;8.40;99.90;;;;;;4876382;29;20418;-81
2022/04/23 02:18:11;;;;;;;47.90;35.70;;;8.40;99.90;;;;;;4887846;29;20115;-81
2022/04/23 02:20:36;;;;;;;47.45;37.08;;;8.40;99.90;;;;;;4906187;29;20508;-82
2022/04/23 02:23:02;;;;;;;54.88;38.90;;;8.20;99.90;;;;;;4890632;29;20029;-81
2022/04/23 02:25:28;;;;;;;55.20;37.10;;;8.20;99.90;;;;;;4907169;29;20036;-80
2022/04/23 02:27:53;;;;;;;52.38;38.70;;;8.20;99.90;;;;;;4906463;29;20064;-80
2022/04/23 02:30:20;;;;;;;47.65;36.35;;;8.20;99.90;;;;;;4891434;28;20028;-80
2022/04/23 02:32:46;;;;;;;45.75;34.90;;;8.20;99.90;;;;;;4924989;28;20528;-80
2022/04/23 02:35:12;;;;;;;51.38;36.30;;;8.30;99.90;;;;;;4909133;28;20036;-79
2022/04/23 02:37:37;;;;;;;51.65;36.03;;;8.30;99.90;;;;;;4907603;29;20032;-79
2022/04/23 02:40:04;;;;;;;50.28;37.72;;;8.20;99.90;;;;;;4893684;29;20040;-79
2022/04/23 02:42:30;;;;;;;53.88;37.55;;;8.20;99.90;;;;;;4877601;29;20440;-80
2022/04/23 02:45:00;;;;;;;48.67;36.97;;;8.20;99.90;;;;;;4894201;29;20032;-79
2022/04/23 02:47:29;;;;;;;53.58;36.25;;;8.10;99.90;;;;;;4910216;29;20391;-79
2022/04/23 02:49:55;;;;;;;54.75;36.90;;;8.00;99.90;;;;;;4907169;29;20021;-80
2022/04/23 02:52:21;;;;;;;49.53;36.97;;;8.10;99.90;;;;;;4909938;28;20035;-79
2022/04/23 02:54:47;;;;;;;51.15;37.47;;;8.10;99.90;;;;;;4907778;29;20032;-79
2022/04/23 02:57:12;;;;;;;49.38;35.95;;;8.20;99.90;;;;;;4893778;29;20028;-79
2022/04/23 02:59:39;;;;;;;49.45;36.85;;;8.20;99.90;;;;;;4893914;29;20311;-78
2022/04/23 03:02:05;;;;;;;56.10;37.92;;;8.20;99.90;;;;;;4908070;29;20091;-79
2022/04/23 03:04:30;;;;;;;51.85;37.05;;;8.10;99.90;;;;;;4893737;28;20440;-80
2022/04/23 03:06:56;;;;;;;51.25;37.78;;;7.90;99.90;;;;;;4878024;29;20032;-79
2022/04/23 03:09:22;;;;;;;51.58;37.60;;;8.00;99.90;;;;;;4893894;28;20514;-78
2022/04/23 03:11:48;;;;;;;52.00;37.88;;;8.00;99.90;;;;;;4906627;29;20043;-79
2022/04/23 03:14:13;;;;;;;52.95;39.05;;;8.00;99.90;;;;;;4876515;29;20103;-79
2022/04/23 03:16:39;;;;;;;50.75;37.47;;;7.90;99.90;;;;;;4893095;29;20181;-79
2022/04/23 03:19:04;;;;;;;50.42;37.35;;;8.00;99.90;;;;;;4891096;29;20040;-79
2022/04/23 03:21:30;;;;;;;56.53;38.15;;;7.90;99.90;;;;;;4909162;28;20067;-79
2022/04/23 03:23:55;;;;;;;53.35;38.85;;;8.00;99.90;;;;;;4891155;29;20399;-79
2022/04/23 03:26:21;;;;;;;55.15;37.45;;;7.90;99.90;;;;;;4891969;28;20039;-79
2022/04/23 03:28:46;;;;;;;49.58;37.03;;;8.00;99.90;;;;;;4916668;28;20099;-79
2022/04/23 03:31:12;;;;;;;50.95;38.25;;;8.10;99.90;;;;;;4892878;29;20150;-79
2022/04/23 03:33:38;;;;;;;51.47;36.92;;;8.10;99.90;;;;;;4913039;28;20143;-79
2022/04/23 03:36:04;;;;;;;53.70;38.55;;;8.10;99.90;;;;;;4892611;29;20024;-79
2022/04/23 03:38:31;;;;;;;53.90;38.65;;;8.00;99.90;;;;;;4904157;29;20123;-79
2022/04/23 03:40:56;;;;;;;52.78;36.80;;;8.10;99.90;;;;;;4905432;28;20059;-79
2022/04/23 03:43:25;;;;;;;53.47;36.65;;;8.10;99.90;;;;;;4908119;28;20582;-79
2022/04/23 03:45:52;;;;;;;52.42;36.83;;;8.20;99.90;;;;;;4886189;29;20051;-78
2022/04/23 03:48:17;;;;;;;54.13;40.20;;;8.00;99.90;;;;;;4908663;28;20415;-78
2022/04/23 03:50:43;;;;;;;54.90;38.83;;;8.10;99.90;;;;;;4891665;28;20035;-79
2022/04/23 03:53:11;;;;;;;57.95;38.55;;;8.20;99.90;;;;;;4892402;29;20120;-79
2022/04/23 03:55:36;;;;;;;51.30;37.50;;;8.20;99.90;;;;;;4906675;28;20111;-79
2022/04/23 03:58:02;;;;;;;51.72;35.33;;;8.10;99.90;;;;;;4910669;29;20103;-79
2022/04/23 04:00:28;;;;;;;48.78;35.60;;;8.20;99.90;;;;;;4890825;29;20120;-79
2022/04/23 04:02:54;;;;;;;49.00;35.72;;;8.20;99.90;;;;;;4893419;28;20030;-79
2022/04/23 04:05:20;;;;;;;49.72;35.58;;;8.10;99.90;;;;;;4907007;28;20043;-79
2022/04/23 04:07:47;;;;;;;51.58;36.47;;;8.00;99.90;;;;;;4877032;29;20029;-79
2022/04/23 04:10:14;;;;;;;51.92;37.00;;;8.10;99.90;;;;;;4910052;28;20032;-80
2022/04/23 04:12:39;;;;;;;47.33;35.13;;;8.00;99.90;;;;;;4907572;29;20323;-79
2022/04/23 04:15:06;;;;;;;51.15;38.03;;;8.10;99.90;;;;;;4892918;29;20043;-79
2022/04/23 04:17:32;;;;;;;54.38;36.70;;;8.00;99.90;;;;;;4904388;29;21088;-79
2022/04/23 04:19:58;;;;;;;49.72;35.75;;;8.00;99.90;;;;;;4891610;29;20040;-78
2022/04/23 04:22:24;;;;;;;55.60;37.10;;;8.00;99.90;;;;;;4906941;28;20033;-79
2022/04/23 04:24:49;;;;;;;56.38;37.40;;;7.90;99.90;;;;;;4891328;29;20044;-79
2022/04/23 04:27:15;;;;;;;56.28;36.72;;;7.90;99.90;;;;;;4905593;28;20100;-79
2022/04/23 04:29:41;;;;;;;51.05;37.17;;;7.90;99.90;;;;;;4892459;29;20088;-79
2022/04/23 04:32:07;;;;;;;52.95;38.28;;;7.90;99.90;;;;;;4891573;28;20032;-79
2022/04/23 04:34:33;;;;;;;55.05;38.22;;;7.90;99.90;;;;;;4891278;28;20055;-78
2022/04/23 04:37:09;;;;;;;42.70;29.02;;;7.90;99.90;;;;;;4907432;29;20396;-79
2022/04/23 04:39:35;;;;;;;55.88;38.30;;;8.00;99.90;;;;;;4874869;29;20064;-79
2022/04/23 04:42:01;;;;;;;48.97;36.85;;;8.00;99.90;;;;;;4869068;29;20070;-80
2022/04/23 04:44:27;;;;;;;48.80;34.75;;;7.90;99.90;;;;;;4891219;29;20134;-80
2022/04/23 04:46:52;;;;;;;54.35;38.10;;;8.00;99.90;;;;;;4890891;28;20032;-79
2022/04/23 04:49:18;;;;;;;56.42;38.78;;;8.00;99.90;;;;;;4890702;28;20043;-79
2022/04/23 04:51:44;;;;;;;59.35;39.88;;;8.00;99.90;;;;;;4876550;29;20036;-80
2022/04/23 04:54:09;;;;;;;58.25;38.38;;;8.00;99.90;;;;;;4904231;29;20643;-80
2022/04/23 04:56:35;;;;;;;57.47;40.28;;;7.90;99.90;;;;;;4907400;28;20046;-80
2022/04/23 04:59:04;;;;;;;60.22;38.20;;;7.90;99.90;;;;;;4907281;29;20083;-80
2022/04/23 05:01:30;;;;;;;60.53;41.47;;;7.90;99.90;;;;;;4904287;28;20025;-80
2022/04/23 05:03:55;;;;;;;62.30;42.42;;;7.90;99.90;;;;;;4892322;28;20087;-80
2022/04/23 05:06:21;;;;;;;57.42;40.05;;;8.00;99.90;;;;;;4887803;29;20035;-80
2022/04/23 05:08:46;;;;;;;61.10;41.15;;;8.00;99.90;;;;;;4907000;29;20119;-80
2022/04/23 05:11:12;;;;;;;60.03;41.65;;;8.00;99.90;;;;;;4908505;29;20032;-80
2022/04/23 05:13:40;;;;;;;62.33;42.63;;;8.00;99.90;;;;;;4895529;28;20123;-80
2022/04/23 05:16:06;;;;;;;59.25;41.80;;;7.90;99.90;;;;;;4892067;29;20035;-80
2022/04/23 05:18:33;;;;;;;61.78;43.03;;;8.00;99.90;;;;;;4907125;29;20036;-80
2022/04/23 05:20:58;;;;;;;61.72;42.38;;;8.10;99.90;;;;;;4901919;29;20042;-80
2022/04/23 05:23:24;;;;;;;56.60;41.17;;;8.20;99.90;;;;;;4906807;29;20028;-80
2022/04/23 05:25:49;;;;;;;59.95;41.60;;;8.30;99.90;;;;;;4905541;29;20111;-80
2022/04/23 05:28:15;;;;;;;63.78;42.65;;;8.20;99.90;;;;;;4890126;28;20046;-80
2022/04/23 05:30:41;;;;;;;68.30;43.30;;;8.30;99.90;;;;;;4906493;29;20123;-79
2022/04/23 05:33:06;;;;;;;66.03;44.58;;;8.40;99.90;;;;;;4873749;29;20146;-80
2022/04/23 05:35:32;;;;;;;65.50;43.63;;;8.50;99.90;;;;;;4887018;28;20028;-81
2022/04/23 05:37:58;;;;;;;66.93;44.83;;;8.60;99.90;;;;;;4890774;28;20104;-80
2022/04/23 05:40:23;;;;;;;66.43;45.10;;;8.60;99.90;;;;;;4918863;28;20026;-81
2022/04/23 05:42:49;;;;;;;58.38;42.85;;;8.70;99.90;;;;;;4907264;29;20032;-80
2022/04/23 05:45:14;;;;;;;56.92;40.90;;;8.80;99.90;;;;;;4907721;29;20459;-80
2022/04/23 05:47:41;;;;;;;57.10;41.50;;;8.90;99.90;;;;;;4904482;29;20552;-81
2022/04/23 05:50:08;;;;;;;51.05;38.47;;;9.10;99.90;;;;;;4890071;28;20056;-80
2022/04/23 05:52:40;;;;;;;51.08;37.55;;;9.20;99.90;;;;;;4901948;29;20087;-81
2022/04/23 05:55:08;;;;;;;52.35;39.17;;;9.30;99.90;;;;;;4890951;29;20504;-80
2022/04/23 05:57:34;;;;;;;51.10;41.58;;;9.40;99.90;;;;;;4873681;29;20025;-80
2022/04/23 05:59:59;;;;;;;50.78;38.28;;;9.50;99.90;;;;;;4875692;28;20036;-80
2022/04/23 06:02:25;;;;;;;46.53;35.92;;;9.70;99.90;;;;;;4906143;28;20032;-80
2022/04/23 06:04:51;;;;;;;51.17;38.28;;;9.80;99.90;;;;;;4893146;28;20070;-81
2022/04/23 06:07:16;;;;;;;48.10;36.35;;;9.90;99.90;;;;;;4909217;29;20079;-80
2022/04/23 06:09:42;;;;;;;50.15;38.95;;;10.00;99.90;;;;;;4895134;29;20032;-80
2022/04/23 06:12:08;;;;;;;42.42;33.47;;;10.20;99.90;;;;;;4909817;28;20036;-80
2022/04/23 06:14:34;;;;;;;46.08;37.80;;;10.30;99.90;;;;;;4894485;28;20155;-80
2022/04/23 06:16:59;;;;;;;46.95;36.10;;;10.40;99.90;;;;;;4878169;28;20068;-80
2022/04/23 06:19:25;;;;;;;45.83;36.03;;;10.50;99.90;;;;;;4909170;29;20032;-80
2022/04/23 06:21:50;;;;;;;44.03;33.78;;;10.60;99.90;;;;;;4893568;28;20043;-80
2022/04/23 06:24:16;;;;;;;42.35;33.88;;;10.70;99.90;;;;;;4879755;29;20047;-80
2022/04/23 06:26:41;;;;;;;40.70;34.63;;;10.90;99.90;;;;;;4894902;28;20107;-80
2022/04/23 06:29:07;;;;;;;42.83;33.42;;;11.00;99.90;;;;;;4908102;28;22968;-80
2022/04/23 06:31:33;;;;;;;40.25;33.65;;;11.10;99.90;;;;;;4906041;29;20112;-80
2022/04/23 06:33:58;;;;;;;41.55;31.58;;;11.20;99.90;;;;;;4889612;29;20055;-80
2022/04/23 06:36:24;;;;;;;42.90;31.10;;;11.50;99.90;;;;;;4884555;29;20494;-80
2022/04/23 06:38:49;;;;;;;41.42;30.23;;;11.50;99.90;;;;;;4905682;29;20032;-81
2022/04/23 06:41:15;;;;;;;42.28;29.60;;;11.70;99.90;;;;;;4895062;29;20032;-81
2022/04/23 06:43:40;;;;;;;34.85;25.48;;;11.80;99.90;;;;;;4909388;28;20124;-80
2022/04/23 06:46:06;;;;;;;32.40;27.15;;;12.00;99.90;;;;;;4892968;29;20064;-80
2022/04/23 06:48:31;;;;;;;37.58;30.60;;;12.10;99.90;;;;;;4893870;28;20223;-80
2022/04/23 06:50:57;;;;;;;37.97;30.50;;;12.20;99.90;;;;;;4892901;28;20055;-80
2022/04/23 06:53:22;;;;;;;39.83;31.55;;;12.30;99.90;;;;;;4891532;28;20143;-81
2022/04/23 06:55:48;;;;;;;37.60;28.80;;;12.50;99.90;;;;;;4878795;29;20024;-81
2022/04/23 06:58:15;;;;;;;34.92;28.52;;;12.60;99.90;;;;;;4909074;29;20107;-81
2022/04/23 07:00:41;;;;;;;36.45;30.02;;;12.70;99.90;;;;;;4877724;28;20062;-81
2022/04/23 07:03:07;;;;;;;36.28;30.30;;;12.90;99.90;;;;;;4901432;29;20119;-81
2022/04/23 07:05:33;;;;;;;34.60;27.65;;;13.00;99.90;;;;;;4907393;28;20139;-81
2022/04/23 07:08:02;;;;;;;36.30;27.90;;;13.20;99.90;;;;;;4902620;29;20322;-81
2022/04/23 07:10:29;;;;;;;35.38;29.55;;;13.30;99.90;;;;;;4904483;29;20104;-82
2022/04/23 07:12:58;;;;;;;34.33;28.60;;;13.40;99.90;;;;;;4887681;29;20112;-80
2022/04/23 07:15:24;;;;;;;34.17;26.55;;;13.60;99.90;;;;;;4908396;28;20328;-79
2022/04/23 07:17:50;;;;;;;36.88;29.50;;;13.70;99.90;;;;;;4908047;29;20399;-80
2022/04/23 07:20:16;;;;;;;34.05;27.45;;;13.70;99.90;;;;;;4893170;29;20036;-80
2022/04/23 07:25:26;;;;;;;38.47;28.55;;;14.00;99.90;;;;;;4906366;28;20039;-80
2022/04/23 07:27:52;;;;;;;33.67;27.15;;;14.10;99.90;;;;;;4893622;29;20024;-79
2022/04/23 07:30:17;;;;;;;30.35;24.42;;;14.20;99.90;;;;;;4909616;29;20036;-81
2022/04/23 07:32:43;;;;;;;34.42;28.38;;;14.40;99.90;;;;;;4906763;28;20028;-80
2022/04/23 07:38:14;;;;;;;32.83;28.15;;;14.60;99.90;;;;;;4889200;29;20048;-80
2022/04/23 07:40:43;;;;;;;29.25;25.42;;;14.80;99.90;;;;;;4873191;29;20049;-80
2022/04/23 07:43:12;;;;;;;31.23;25.23;;;14.80;99.90;;;;;;4884305;28;20043;-80
2022/04/23 07:45:38;;;;;;;32.13;26.40;;;15.00;99.90;;;;;;4909412;29;20485;-80
2022/04/23 07:48:09;;;;;;;30.77;27.38;;;15.00;99.90;;;;;;4892973;28;20107;-80
2022/04/23 07:50:36;;;;;;;30.60;25.90;;;15.20;99.90;;;;;;4924804;28;20059;-81
2022/04/23 07:53:01;;;;;;;30.85;27.50;;;15.30;99.90;;;;;;4871389;29;20032;-80
2022/04/23 07:55:30;;;;;;;31.05;26.02;;;15.50;99.90;;;;;;4909571;28;20095;-80
2022/04/23 07:57:57;;;;;;;31.67;26.38;;;15.50;99.90;;;;;;4890931;29;20154;-80
2022/04/23 08:00:23;;;;;;;34.28;29.17;;;15.60;99.90;;;;;;4909750;29;20123;-79
2022/04/23 08:02:49;;;;;;;31.92;28.13;;;15.80;99.90;;;;;;4877761;29;20107;-80
2022/04/23 08:05:15;;;;;;;31.55;27.75;;;15.90;99.90;;;;;;4893324;29;20048;-80
2022/04/23 08:07:42;;;;;;;31.85;25.88;;;16.00;99.90;;;;;;4889921;28;20071;-81
2022/04/23 08:10:08;;;;;;;33.88;28.67;;;16.10;99.90;;;;;;4893075;29;20500;-81
2022/04/23 08:12:35;;;;;;;34.58;27.08;;;16.10;99.90;;;;;;4874732;28;20040;-80
2022/04/23 08:15:01;;;;;;;33.40;29.35;;;16.20;99.90;;;;;;4892745;29;20047;-80
2022/04/23 08:17:27;;;;;;;30.55;27.25;;;16.30;99.90;;;;;;4888760;29;20079;-80
2022/04/23 08:19:52;;;;;;;31.77;26.02;;;16.30;99.90;;;;;;4893467;29;20036;-80
2022/04/23 08:22:18;;;;;;;30.88;25.98;;;16.40;99.90;;;;;;4893580;29;20091;-79
2022/04/23 08:24:44;;;;;;;31.05;25.80;;;16.40;99.90;;;;;;4878428;29;20040;-81
2022/04/23 08:27:09;;;;;;;32.03;26.35;;;16.60;99.90;;;;;;4907532;29;20032;-82
2022/04/23 08:32:20;;;;;;;36.10;28.45;;;16.70;99.90;;;;;;4891909;29;20043;-81
2022/04/23 08:34:46;;;;;;;32.35;27.52;;;16.80;99.90;;;;;;4893074;29;20044;-80
2022/04/23 08:37:12;;;;;;;33.53;26.92;;;17.00;99.90;;;;;;4908162;29;20583;-81
2022/04/23 08:39:39;;;;;;;31.88;25.55;;;17.10;99.90;;;;;;4893310;29;20091;-80
2022/04/23 08:42:06;;;;;;;33.72;26.13;;;17.20;99.90;;;;;;4909097;29;20044;-80
2022/04/23 08:44:32;;;;;;;27.58;24.23;;;17.30;99.90;;;;;;4909116;28;20063;-80
2022/04/23 08:46:58;;;;;;;28.00;23.73;;;17.40;99.90;;;;;;4865587;29;20047;-80
2022/04/23 08:49:29;;;;;;;26.20;21.88;;;17.50;99.90;;;;;;4878956;29;20040;-81
2022/04/23 08:51:57;;;;;;;24.65;21.38;;;17.60;99.90;;;;;;4900811;29;20071;-80
2022/04/23 08:54:23;;;;;;;25.58;21.25;;;17.80;99.90;;;;;;4906760;29;20051;-80
2022/04/23 08:56:49;;;;;;;21.45;17.63;;;17.90;99.90;;;;;;4921659;28;20390;-81
2022/04/23 08:59:15;;;;;;;19.15;16.15;;;18.10;99.90;;;;;;4892314;29;20032;-80
2022/04/23 09:08:29;;;;;;;16.55;14.57;;;18.70;98.20;;;;;;4914495;29;20116;-84
2022/04/23 09:10:55;;;;;;;15.82;13.65;;;18.70;98.80;;;;;;4908305;29;20075;-86
2022/04/23 09:13:38;;;;;;;16.75;14.23;;;18.70;99.00;;;;;;4910806;28;20590;-86
2022/04/23 09:24:49;;;;;;;14.15;12.38;;;19.00;96.30;;;;;;4906960;29;20076;-81
2022/04/23 09:27:15;;;;;;;14.55;12.45;;;19.10;94.90;;;;;;4875574;29;20059;-83
2022/04/23 09:29:42;;;;;;;15.23;13.40;;;19.20;95.20;;;;;;4891663;28;20119;-84
2022/04/23 09:32:10;;;;;;;14.20;11.32;;;19.30;94.80;;;;;;4881900;29;20047;-84
2022/04/23 09:34:36;;;;;;;14.88;13.00;;;19.40;93.10;;;;;;4877434;28;20055;-84
2022/04/23 09:37:02;;;;;;;18.55;13.15;;;19.50;94.00;;;;;;4887112;28;20032;-84
2022/04/23 09:39:38;;;;;;;19.48;12.65;;;19.60;94.10;;;;;;4893744;29;20274;-86
2022/04/23 09:42:17;;;;;;;23.20;20.48;;;19.70;92.80;;;;;;4909565;29;20039;-85
2022/04/23 09:44:43;;;;;;;27.73;22.05;;;19.90;92.90;;;;;;4880734;29;20508;-85
2022/04/23 09:47:09;;;;;;;25.63;21.55;;;19.90;94.30;;;;;;4893606;29;20515;-85
2022/04/23 09:49:35;;;;;;;26.52;22.60;;;20.00;92.70;;;;;;4924647;28;20037;-85
2022/04/23 09:52:08;;;;;;;28.00;20.30;;;20.00;91.20;;;;;;4875718;28;20033;-85
2022/04/23 09:54:34;;;;;;;46.70;22.88;;;20.10;91.00;;;;;;4890964;29;20107;-85
2022/04/23 09:57:00;;;;;;;21.95;17.85;;;20.20;91.60;;;;;;4848895;29;20051;-84
2022/04/23 09:59:29;;;;;;;33.55;18.33;;;20.30;92.80;;;;;;4886659;29;20396;-85
2022/04/23 10:01:55;;;;;;;28.88;17.48;;;20.40;92.30;;;;;;4894609;29;20119;-84
2022/04/23 10:04:26;;;;;;;15.73;14.13;;;20.80;92.00;;;;;;4878700;29;20193;-84
2022/04/23 10:06:51;;;;;;;13.70;11.80;;;21.20;90.50;;;;;;4875974;29;20489;-85
2022/04/23 10:09:26;;;;;;;12.90;10.15;;;21.20;88.50;;;;;;4893132;29;20067;-85
2022/04/23 10:12:16;;;;;;;12.88;11.30;;;21.30;82.00;;;;;;4892885;29;20110;-85
2022/04/23 10:14:56;;;;;;;14.55;10.38;;;21.50;82.30;;;;;;4897273;28;20047;-85
2022/04/23 10:17:22;;;;;;;12.60;11.30;;;22.00;76.50;;;;;;4869731;29;20058;-85
2022/04/23 10:19:50;;;;;;;14.65;11.43;;;22.20;83.50;;;;;;4908920;28;20037;-83
2022/04/23 10:22:31;;;;;;;11.52;10.23;;;22.30;82.70;;;;;;4867108;29;20044;-84
2022/04/23 10:25:06;;;;;;;11.35;10.18;;;22.50;83.40;;;;;;4890318;28;20084;-84
2022/04/23 10:27:32;;;;;;;13.75;9.82;;;22.50;78.80;;;;;;4910420;29;20558;-84
2022/04/23 10:30:03;;;;;;;14.07;9.23;;;22.50;78.80;;;;;;4879232;28;20032;-83
2022/04/23 10:32:44;;;;;;;12.15;8.82;;;22.60;75.90;;;;;;4893500;29;20047;-84
2022/04/23 10:35:18;;;;;;;8.95;8.05;;;22.70;71.70;;;;;;4890004;29;20048;-83
2022/04/23 10:37:51;;;;;;;13.50;8.65;;;23.00;68.10;;;;;;4902301;28;20405;-83
2022/04/23 10:40:19;;;;;;;9.93;8.55;;;22.80;67.80;;;;;;4896401;29;20040;-83
2022/04/23 10:43:19;;;;;;;12.00;9.60;;;22.70;65.10;;;;;;4893645;29;20068;-83
2022/04/23 10:45:45;;;;;;;11.20;9.95;;;22.60;66.80;;;;;;4864009;29;20515;-83
2022/04/23 10:48:21;;;;;;;13.48;8.80;;;22.70;68.50;;;;;;4885697;29;20036;-82
2022/04/23 10:51:15;;;;;;;10.20;8.93;;;22.60;69.40;;;;;;4903661;28;20076;-82
2022/04/23 10:53:43;;;;;;;14.70;10.43;;;22.60;69.10;;;;;;4883578;29;20119;-85
2022/04/23 10:56:17;;;;;;;9.30;8.32;;;22.50;67.40;;;;;;4891863;28;20037;-84
2022/04/23 10:58:51;;;;;;;15.75;11.48;;;22.30;62.70;;;;;;4867091;29;20539;-83
2022/04/23 11:01:29;;;;;;;11.07;9.88;;;22.40;66.40;;;;;;4861026;28;20043;-82
2022/04/23 11:03:55;;;;;;;12.48;10.18;;;22.50;64.80;;;;;;4868155;29;20040;-83
2022/04/23 11:12:19;;;;;;;13.20;11.90;;;22.50;65.70;;;;;;4910015;29;20074;-82
2022/04/23 11:14:48;;;;;;;13.55;12.15;;;22.60;65.70;;;;;;4889830;28;20444;-83
2022/04/23 11:17:20;;;;;;;12.23;11.02;;;22.90;63.50;;;;;;4878871;29;20035;-82
2022/04/23 11:19:53;;;;;;;13.77;10.50;;;22.80;63.50;;;;;;4893456;28;20124;-82
2022/04/23 11:22:19;;;;;;;14.20;11.05;;;22.90;61.20;;;;;;4872527;28;20138;-82
2022/04/23 11:24:47;;;;;;;11.80;10.20;;;22.90;62.10;;;;;;4879627;29;20473;-82
2022/04/23 11:27:26;;;;;;;9.93;8.90;;;23.00;63.20;;;;;;4876268;28;20036;-81
2022/04/23 11:29:54;;;;;;;15.77;12.20;;;23.20;59.20;;;;;;4873102;29;20096;-82
2022/04/23 11:32:27;;;;;;;13.57;11.25;;;23.40;59.00;;;;;;4902289;28;20032;-81
2022/04/23 11:34:59;;;;;;;12.57;11.27;;;23.40;59.80;;;;;;4879758;29;20124;-81
2022/04/23 11:37:33;;;;;;;14.00;11.27;;;23.60;59.20;;;;;;4907366;29;20043;-81
2022/04/23 11:40:12;;;;;;;19.52;12.13;;;24.00;59.70;;;;;;4894823;28;20044;-82
2022/04/23 11:42:44;;;;;;;13.00;10.70;;;23.80;60.60;;;;;;4907971;29;20504;-81
2022/04/23 11:45:11;;;;;;;11.52;10.15;;;23.60;59.70;;;;;;4891420;28;20046;-81
2022/04/23 11:47:37;;;;;;;12.88;11.55;;;23.90;59.40;;;;;;4907589;29;20504;-80
2022/04/23 11:50:12;;;;;;;15.38;11.18;;;23.90;59.10;;;;;;4911716;28;20036;-80
2022/04/23 11:52:38;;;;;;;14.57;10.83;;;23.90;59.70;;;;;;4891497;29;20071;-80
2022/04/23 11:55:04;;;;;;;14.13;11.35;;;23.90;56.70;;;;;;4893147;29;20075;-81
2022/04/23 11:57:30;;;;;;;15.02;11.07;;;23.80;57.00;;;;;;4907581;28;20043;-81
2022/04/23 11:59:59;;;;;;;13.20;11.25;;;23.90;57.10;;;;;;4892583;28;20087;-80
2022/04/23 12:02:26;;;;;;;13.80;12.40;;;23.90;56.50;;;;;;4890501;28;20036;-80
2022/04/23 12:04:53;;;;;;;13.00;11.07;;;23.90;57.50;;;;;;4890631;28;20051;-80
2022/04/23 12:07:19;;;;;;;12.73;11.40;;;23.90;58.30;;;;;;4887895;28;20030;-80
2022/04/23 12:09:58;;;;;;;14.48;12.13;;;23.90;57.80;;;;;;4876734;28;20036;-79
2022/04/23 12:12:28;;;;;;;15.05;11.70;;;24.00;56.90;;;;;;4884122;28;20039;-80
2022/04/23 12:14:56;;;;;;;11.13;10.02;;;23.90;55.90;;;;;;4877643;28;20144;-80
2022/04/23 12:17:23;;;;;;;12.73;10.27;;;24.20;56.90;;;;;;4906693;29;20729;-80
2022/04/23 12:19:49;;;;;;;13.10;9.50;;;24.30;57.30;;;;;;4889452;29;20033;-80
2022/04/23 12:22:25;;;;;;;13.52;11.10;;;24.50;54.60;;;;;;4886731;28;20051;-80
2022/04/23 12:24:51;;;;;;;13.60;11.55;;;24.70;55.60;;;;;;4890788;29;20036;-80
2022/04/23 12:27:20;;;;;;;14.15;11.38;;;24.70;53.10;;;;;;4889269;28;20059;-80
2022/04/23 12:40:58;;;;;;;13.48;11.30;;;25.00;55.60;;;;;;4906258;28;20066;-78
2022/04/23 12:43:24;;;;;;;15.45;11.73;;;25.20;54.10;;;;;;4889825;29;20594;-79
2022/04/23 12:46:01;;;;;;;13.20;11.80;;;25.30;53.30;;;;;;4898114;29;20419;-79
2022/04/23 12:48:27;;;;;;;13.30;12.00;;;25.40;53.50;;;;;;4877472;29;20492;-78
2022/04/23 12:51:04;;;;;;;16.63;12.60;;;25.40;52.80;;;;;;4899163;28;20032;-78
2022/04/23 12:53:36;;;;;;;15.15;12.45;;;25.50;52.30;;;;;;4892394;29;20067;-78
2022/04/23 12:56:05;;;;;;;14.50;13.00;;;25.50;53.80;;;;;;4872280;28;20055;-78
2022/04/23 12:58:31;;;;;;;14.77;12.35;;;25.70;53.00;;;;;;4890656;28;20039;-77
2022/04/23 13:00:56;;;;;;;16.00;13.27;;;25.70;52.90;;;;;;4903645;29;20048;-77
2022/04/23 13:05:56;;;;;;;15.05;13.45;;;26.00;51.30;;;;;;4907448;29;20024;-78
2022/04/23 13:11:24;;;;;;;15.88;11.43;;;26.00;52.90;;;;;;4903202;28;20043;-79
2022/04/23 13:13:53;;;;;;;13.93;12.50;;;26.00;50.70;;;;;;4892167;28;20032;-78
2022/04/23 13:16:18;;;;;;;17.15;13.60;;;26.10;53.60;;;;;;4904157;28;20407;-78
2022/04/23 13:18:44;;;;;;;12.70;11.35;;;26.10;51.60;;;;;;4890422;28;20673;-80
2022/04/23 13:21:09;;;;;;;15.88;12.18;;;25.90;51.30;;;;;;4904749;28;20601;-80